Lyman, SC (29365)

1:34 AM EDT on September 22, 2014 (GMT -0400)
Northview Acres | Change Station
CLOSE
Current Station
Personal Weather Station
Location: Lyman, SC
Elevation: 938 ft
Nearby Weather Stations

Elev 938 ft 34.96 °N, 82.13 °W | Updated 4 minutes ago

Overcast
Overcast
70.9 °F
Feels Like 71 °F
N
0.0
Wind Variable Wind from SW
Gusts 0.0 mph

Today
High -- | Low -- °F
--% Chance of Precip.
Yesterday
High -- | Low -- °F
Precip. -- in
7:16 AM 7:25 PM
Waning Crescent, 4% visible
Pressure 29.88 in
Visibility 10.0 miles
Clouds Mostly Cloudy 7500 ft
Mostly Cloudy 9000 ft
Overcast 11000 ft
Heat Index 71 °F
Dew Point 65 °F
Humidity 82%
Rainfall 0.00 in
Snow Depth Not available.
UV 0 out of 12
Pollen 7.30 out of 12
Ozone Good
PM2.5 Good
Flu Activity Not available.
METAR KGSP 220453Z AUTO 20004KT 10SM BKN075 BKN090 OVC110 22/19 A2992 RMK AO2 RAB37E46 SLP118 P0000 T02170194 403000144

More Conditions Fewer Conditions

Pressure 29.88 in
Visibility 10.0 miles
Clouds Mostly Cloudy 7500 ft
Mostly Cloudy 9000 ft
Overcast 11000 ft
Heat Index 71 °F
Dew Point 65 °F
Humidity 82%
Rainfall 0.00 in
Snow Depth Not available.
UV 0 out of 12
Pollen 7.30 out of 12
Ozone Good
PM2.5 Good
Flu Activity Not available.
METAR KGSP 220453Z AUTO 20004KT 10SM BKN075 BKN090 OVC110 22/19 A2992 RMK AO2 RAB37E46 SLP118 P0000 T02170194 403000144

More Conditions Fewer Conditions

10-Day Weather Forecast

Almanac

Astronomy

Sep. 22, 2014 Rise Set
Actual Time 7:16 AM EDT 7:25 PM EDT
Civil Twilight 6:51 AM EDT 7:50 PM EDT
Nautical Twilight 6:21 AM EDT 8:20 PM EDT
Astronomical Twilight 5:51 AM EDT 8:49 PM EDT
Moon 5:46 AM EDT 6:30 PM EDT
Length of Visible Light 12h 59m
Length of Day
12h 08m
Tomorrow will be 2m 10s shorter.
Waning Crescent, 4% of the Moon is Illuminated
Today
Waning Crescent
Sep 24
New
Oct 1
First Quarter
Oct 8
Full
Oct 15
Last Quarter

Today's Extremes

State Highs State Lows

Community

WunderPhotos

Upload Photos

1,755,391 photos uploaded!

Nearby

Air Quality

  Air Quality AQ Index Pollutant
Yesterday Good
OZONE
Yesterday Good
PM2.5
Current Good
PM2.5
Current Good
OZONE
Sunday Good
OZONE
Monday Good
OZONE

Snow Depth

Station Depth Elevation
No new snow has been reported.

Earthquake Activity

City Distance Mag. Time & Date
New Ellenton, South Carolina 108 miles 2.6 4:38 PM EDT
2014-09-19
Minimum magnitude displayed is 2.5.

Coastal Water Temperatures

Place Temperature
No Stations Reporting

Nearby Weather Stations